createdAt,value
2019-02-06T00:00:02.083Z,14.65
2019-02-06T00:02:32.007Z,14.87
2019-02-06T00:05:00.824Z,15.20
2019-02-06T00:07:30.480Z,15.80
2019-02-06T00:10:00.887Z,15.35
2019-02-06T00:12:32.369Z,15.08
2019-02-06T00:15:01.075Z,14.73
2019-02-06T00:17:30.910Z,13.65
2019-02-06T00:20:01.488Z,12.82
2019-02-06T00:22:30.920Z,12.47
2019-02-06T00:25:01.179Z,12.07
2019-02-06T00:27:31.188Z,13.70
2019-02-06T00:30:00.097Z,12.70
2019-02-06T00:32:28.933Z,12.00
2019-02-06T00:35:00.095Z,13.22
2019-02-06T00:37:31.288Z,15.72
2019-02-06T00:40:01.306Z,15.68
2019-02-06T00:42:33.159Z,15.83
2019-02-06T00:45:04.775Z,14.23
2019-02-06T00:47:36.810Z,12.05
2019-02-06T00:50:15.978Z,14.38
2019-02-06T00:52:45.817Z,14.60
2019-02-06T00:55:15.434Z,12.60
2019-02-06T00:57:45.918Z,12.85
2019-02-06T01:00:23.977Z,15.03
2019-02-06T01:02:54.137Z,15.53
2019-02-06T01:05:23.790Z,13.72
2019-02-06T01:07:53.975Z,12.90
2019-02-06T01:10:23.251Z,13.65
2019-02-06T01:12:51.845Z,13.15
2019-02-06T01:15:23.385Z,11.45
2019-02-06T01:17:53.381Z,14.10
2019-02-06T01:20:22.111Z,12.93
2019-02-06T01:22:51.910Z,10.43
2019-02-06T01:25:21.789Z,12.55
2019-02-06T01:27:50.580Z,12.35
2019-02-06T01:30:22.825Z,10.63
2019-02-06T01:32:54.103Z,10.63
2019-02-06T01:35:27.019Z,12.35
2019-02-06T01:37:55.788Z,9.45
2019-02-06T01:40:24.375Z,10.95
2019-02-06T01:42:53.046Z,13.30
2019-02-06T01:45:27.250Z,12.70
2019-02-06T01:47:56.327Z,12.28
2019-02-06T01:50:24.941Z,12.45
2019-02-06T01:52:53.558Z,11.78
2019-02-06T01:55:26.828Z,10.90
2019-02-06T01:57:56.274Z,10.32
2019-02-06T02:00:26.520Z,10.25
2019-02-06T02:02:55.472Z,12.47
2019-02-06T02:05:24.228Z,8.93
2019-02-06T02:07:54.555Z,11.30
2019-02-06T02:10:23.706Z,10.20
2019-02-06T02:12:52.460Z,10.55
2019-02-06T02:15:21.277Z,11.05
2019-02-06T02:17:50.649Z,8.35
2019-02-06T02:20:24.963Z,9.03
2019-02-06T02:22:56.125Z,9.15
2019-02-06T02:25:26.163Z,10.40
2019-02-06T02:27:57.994Z,10.35
2019-02-06T02:30:34.583Z,10.13
2019-02-06T02:33:04.933Z,9.55
2019-02-06T02:35:33.586Z,10.58
2019-02-06T02:38:04.417Z,10.30
2019-02-06T02:40:33.900Z,8.73
2019-02-06T02:43:03.635Z,10.28
2019-02-06T02:45:32.643Z,10.50
2019-02-06T02:48:02.954Z,10.63
2019-02-06T02:50:32.799Z,9.73
2019-02-06T02:53:02.577Z,10.55
2019-02-06T02:55:31.255Z,10.75
2019-02-06T02:57:59.850Z,9.43
2019-02-06T03:00:46.483Z,12.45
2019-02-06T03:03:16.678Z,10.10
2019-02-06T03:05:45.325Z,8.55
2019-02-06T03:08:14.003Z,10.03
2019-02-06T03:10:46.227Z,10.82
2019-02-06T03:13:15.677Z,10.15
2019-02-06T03:15:46.538Z,11.05
2019-02-06T03:18:15.330Z,10.10
2019-02-06T03:20:43.925Z,9.38
2019-02-06T03:23:13.549Z,8.55
2019-02-06T03:25:42.665Z,10.70
2019-02-06T03:28:11.312Z,9.80
2019-02-06T03:30:41.029Z,9.83
2019-02-06T03:33:09.684Z,8.43
2019-02-06T03:35:40.671Z,8.93
2019-02-06T03:38:11.050Z,8.40
2019-02-06T03:40:42.249Z,9.78
2019-02-06T03:43:10.916Z,9.33
2019-02-06T03:45:40.897Z,10.70
2019-02-06T03:48:09.544Z,9.68
2019-02-06T03:50:40.309Z,9.23
2019-02-06T03:53:10.263Z,10.23
2019-02-06T03:55:43.182Z,9.93
2019-02-06T03:58:14.799Z,8.55
2019-02-06T04:00:46.168Z,7.58
2019-02-06T04:03:16.304Z,8.30
2019-02-06T04:05:44.946Z,8.55
2019-02-06T04:08:14.947Z,8.55
2019-02-06T04:10:53.968Z,9.95
2019-02-06T04:13:23.267Z,9.85
2019-02-06T04:15:53.550Z,9.73
2019-02-06T04:18:22.403Z,10.30
2019-02-06T04:20:52.699Z,9.15
2019-02-06T04:23:22.502Z,10.05
2019-02-06T04:25:52.162Z,8.88
2019-02-06T04:28:22.282Z,8.30
2019-02-06T04:30:51.976Z,9.10
2019-02-06T04:33:22.104Z,9.78
2019-02-06T04:35:51.831Z,8.50
2019-02-06T04:38:21.932Z,7.60
2019-02-06T04:40:50.900Z,8.20
2019-02-06T04:43:22.393Z,8.38
2019-02-06T04:45:52.498Z,8.35
2019-02-06T04:48:22.224Z,6.95
2019-02-06T04:50:51.355Z,9.93
2019-02-06T04:53:21.503Z,9.45
2019-02-06T04:55:53.601Z,9.43
2019-02-06T04:58:24.532Z,6.40
2019-02-06T05:00:53.175Z,8.35
2019-02-06T05:03:27.862Z,7.85
2019-02-06T05:05:56.513Z,8.85
2019-02-06T05:08:27.157Z,8.53
2019-02-06T05:10:55.722Z,8.48
2019-02-06T05:13:25.915Z,7.65
2019-02-06T05:16:08.101Z,7.28
2019-02-06T05:18:36.787Z,8.78
2019-02-06T05:21:05.768Z,7.12
2019-02-06T05:23:34.306Z,7.28
2019-02-06T05:26:04.937Z,8.68
2019-02-06T05:28:36.336Z,8.63
2019-02-06T05:31:28.677Z,8.73
2019-02-06T05:34:11.383Z,9.45
2019-02-06T05:36:41.658Z,8.13
2019-02-06T05:39:09.980Z,8.93
2019-02-06T05:41:38.771Z,8.38
2019-02-06T05:44:07.387Z,8.28
2019-02-06T05:46:36.857Z,6.87
2019-02-06T05:49:15.845Z,6.80
2019-02-06T05:51:49.841Z,6.30
2019-02-06T05:54:18.845Z,6.90
2019-02-06T05:56:54.482Z,8.10
2019-02-06T05:59:23.384Z,8.08
2019-02-06T06:01:51.990Z,6.90
2019-02-06T06:04:24.435Z,6.78
2019-02-06T06:06:53.275Z,6.17
2019-02-06T06:09:22.133Z,7.65
2019-02-06T06:11:52.313Z,6.97
2019-02-06T06:14:20.843Z,7.90
2019-02-06T06:16:49.398Z,7.28
2019-02-06T06:21:00.212Z,7.47
2019-02-06T06:21:57.304Z,7.40
2019-02-06T06:24:35.440Z,7.12
2019-02-06T06:27:07.745Z,7.37
2019-02-06T06:29:39.636Z,7.20
2019-02-06T06:32:11.361Z,8.28
2019-02-06T06:34:40.645Z,7.72
2019-02-06T06:37:11.191Z,7.30
2019-02-06T06:39:42.043Z,6.87
2019-02-06T06:42:13.449Z,6.30
2019-02-06T06:44:46.298Z,6.95
2019-02-06T06:47:16.724Z,6.53
2019-02-06T06:49:46.472Z,6.60
2019-02-06T06:52:18.599Z,7.12
2019-02-06T06:54:47.406Z,6.90
2019-02-06T06:57:16.097Z,7.78
2019-02-06T06:59:44.856Z,7.40
2019-02-06T07:02:13.547Z,6.62
2019-02-06T07:04:42.330Z,7.47
2019-02-06T07:07:11.017Z,6.25
2019-02-06T07:09:41.406Z,7.47
2019-02-06T07:12:11.870Z,5.90
2019-02-06T07:14:42.475Z,7.28
2019-02-06T07:17:11.160Z,7.37
2019-02-06T07:19:39.844Z,9.23
2019-02-06T07:22:08.547Z,7.47
2019-02-06T07:24:38.748Z,8.88
2019-02-06T07:27:07.515Z,8.95
2019-02-06T07:29:37.788Z,8.60
2019-02-06T07:32:09.750Z,9.53
2019-02-06T07:34:40.310Z,18.35
2019-02-06T07:37:11.016Z,18.32
2019-02-06T07:39:40.210Z,14.95
2019-02-06T07:42:08.927Z,10.28
2019-02-06T07:44:38.842Z,9.65
2019-02-06T07:47:10.401Z,10.10
2019-02-06T07:49:42.067Z,8.40
2019-02-06T07:52:11.028Z,8.05
2019-02-06T07:54:40.567Z,10.13
2019-02-06T07:57:09.308Z,10.20
2019-02-06T07:59:38.045Z,12.28
2019-02-06T08:02:08.599Z,11.63
2019-02-06T08:04:37.403Z,9.23
2019-02-06T08:07:06.442Z,9.40
2019-02-06T08:09:37.784Z,14.47
2019-02-06T08:12:07.758Z,12.55
2019-02-06T08:14:36.404Z,15.40
2019-02-06T08:17:05.367Z,11.30
2019-02-06T08:19:33.960Z,10.48
2019-02-06T08:22:02.466Z,10.68
2019-02-06T08:24:31.031Z,9.75
2019-02-06T08:26:59.699Z,10.58
2019-02-06T08:29:28.302Z,10.75
2019-02-06T08:31:56.845Z,10.40
2019-02-06T08:34:25.632Z,10.50
2019-02-06T08:36:54.280Z,9.40
2019-02-06T08:39:22.876Z,9.63
2019-02-06T08:41:51.399Z,10.05
2019-02-06T08:44:19.939Z,9.90
2019-02-06T08:46:48.547Z,8.33
2019-02-06T08:49:17.353Z,9.60
2019-02-06T08:51:45.994Z,9.78
2019-02-06T08:54:15.090Z,8.50
2019-02-06T08:56:43.776Z,9.68
2019-02-06T08:59:12.454Z,9.80
2019-02-06T09:01:40.994Z,9.50
2019-02-06T09:04:09.745Z,11.28
2019-02-06T09:06:38.557Z,12.37
2019-02-06T09:09:09.501Z,11.30
2019-02-06T09:11:38.178Z,10.00
2019-02-06T09:14:06.898Z,10.68
2019-02-06T09:16:35.562Z,10.98
2019-02-06T09:19:04.276Z,12.53
2019-02-06T09:21:33.101Z,11.33
2019-02-06T09:24:01.704Z,10.95
2019-02-06T09:26:33.068Z,11.33
2019-02-06T09:29:00.462Z,14.28
2019-02-06T09:31:29.095Z,13.75
2019-02-06T09:33:57.862Z,14.38
2019-02-06T09:36:26.409Z,16.52
2019-02-06T09:38:54.925Z,16.35
2019-02-06T09:41:23.405Z,19.32
2019-02-06T09:43:51.993Z,15.88
2019-02-06T09:46:20.478Z,16.30
2019-02-06T09:48:50.177Z,14.93
2019-02-06T09:51:19.548Z,17.20
2019-02-06T09:53:48.537Z,15.80
2019-02-06T09:56:19.644Z,16.95
2019-02-06T09:58:48.294Z,17.15
2019-02-06T10:01:16.845Z,18.42
2019-02-06T10:03:47.022Z,18.20
2019-02-06T10:06:15.664Z,18.23
2019-02-06T10:08:44.263Z,16.95
2019-02-06T10:11:12.863Z,16.87
2019-02-06T10:13:41.419Z,16.70
2019-02-06T10:16:10.217Z,18.80
2019-02-06T10:18:40.491Z,17.60
2019-02-06T10:21:09.193Z,17.90
2019-02-06T10:23:37.913Z,18.73
2019-02-06T10:26:06.788Z,19.87
2019-02-06T10:28:35.516Z,18.02
2019-02-06T10:31:04.224Z,19.35
2019-02-06T10:33:33.483Z,20.05
2019-02-06T10:36:02.189Z,18.20
2019-02-06T10:38:30.746Z,18.12
2019-02-06T10:40:59.755Z,19.40
2019-02-06T10:43:32.185Z,18.30
2019-02-06T10:45:58.549Z,19.12
2019-02-06T10:48:27.166Z,16.87
2019-02-06T10:50:58.315Z,16.62
2019-02-06T10:53:26.237Z,19.27
2019-02-06T10:55:54.819Z,19.17
2019-02-06T10:58:23.494Z,19.60
2019-02-06T11:00:56.190Z,17.52
2019-02-06T11:03:24.905Z,17.70
2019-02-06T11:05:53.594Z,18.27
2019-02-06T11:08:23.004Z,16.15
2019-02-06T11:10:51.544Z,16.80
2019-02-06T11:13:20.259Z,16.70
2019-02-06T11:15:48.946Z,16.17
2019-02-06T11:18:17.538Z,15.75
2019-02-06T11:20:46.841Z,15.83
2019-02-06T11:23:15.456Z,15.32
2019-02-06T11:25:44.155Z,14.40
2019-02-06T11:28:13.148Z,15.50
2019-02-06T11:30:41.898Z,15.25
2019-02-06T11:33:10.503Z,14.13
2019-02-06T11:35:39.145Z,15.13
2019-02-06T11:38:08.108Z,15.05
2019-02-06T11:40:36.798Z,13.72
2019-02-06T11:43:06.585Z,14.05
2019-02-06T11:45:36.369Z,13.20
2019-02-06T11:48:05.585Z,10.23
2019-02-06T11:50:36.302Z,9.90
2019-02-06T11:53:06.266Z,9.08
2019-02-06T11:55:35.154Z,11.25
2019-02-06T11:58:03.734Z,12.15
2019-02-06T12:00:49.067Z,13.08
2019-02-06T12:03:17.871Z,14.50
2019-02-06T12:05:46.546Z,13.78
2019-02-06T12:08:15.233Z,15.60
2019-02-06T12:10:44.749Z,13.55
2019-02-06T12:13:13.456Z,13.50
2019-02-06T12:15:41.999Z,14.33
2019-02-06T12:18:10.772Z,14.93
2019-02-06T12:20:39.472Z,15.50
2019-02-06T12:23:08.228Z,15.90
2019-02-06T12:25:36.796Z,13.47
2019-02-06T12:28:06.171Z,16.30
2019-02-06T12:30:39.706Z,15.50
2019-02-06T12:33:08.384Z,16.07
2019-02-06T12:35:37.043Z,15.23
2019-02-06T12:38:06.260Z,15.63
2019-02-06T12:40:35.063Z,15.57
2019-02-06T12:43:05.022Z,14.43
2019-02-06T12:45:34.022Z,13.43
2019-02-06T12:48:02.557Z,14.00
2019-02-06T12:50:31.216Z,14.53
2019-02-06T12:53:00.070Z,15.00
2019-02-06T12:55:37.237Z,15.70
2019-02-06T12:58:06.989Z,15.80
2019-02-06T13:00:38.811Z,14.20
2019-02-06T13:03:07.679Z,14.27
2019-02-06T13:05:36.279Z,15.73
2019-02-06T13:08:05.770Z,14.00
2019-02-06T13:10:34.656Z,13.97
2019-02-06T13:13:03.231Z,15.20
2019-02-06T13:15:32.148Z,16.07
2019-02-06T13:18:00.733Z,15.63
2019-02-06T13:20:34.282Z,15.00
2019-02-06T13:23:02.889Z,13.80
2019-02-06T13:25:31.640Z,13.80
2019-02-06T13:28:00.339Z,14.90
2019-02-06T13:30:35.572Z,14.80
2019-02-06T13:33:05.526Z,14.57
2019-02-06T13:35:34.289Z,14.50
2019-02-06T13:38:02.920Z,14.50
2019-02-06T13:40:31.613Z,12.77
2019-02-06T13:43:00.377Z,14.60
2019-02-06T13:45:43.995Z,15.00
2019-02-06T13:48:12.672Z,16.63
2019-02-06T13:50:41.496Z,14.63
2019-02-06T13:53:10.176Z,16.70
2019-02-06T13:55:38.879Z,17.07
2019-02-06T13:58:19.208Z,17.33
2019-02-06T14:00:41.912Z,18.30
2019-02-06T14:03:10.740Z,16.20
2019-02-06T14:05:39.765Z,18.37
2019-02-06T14:08:10.984Z,19.43
2019-02-06T14:10:39.714Z,17.90
2019-02-06T14:13:08.331Z,18.27
2019-02-06T14:15:45.911Z,17.97
2019-02-06T14:18:14.713Z,17.33
2019-02-06T14:20:44.132Z,17.10
2019-02-06T14:23:25.029Z,17.17
2019-02-06T14:26:05.401Z,17.27
2019-02-06T14:28:44.747Z,17.50
2019-02-06T14:31:29.477Z,17.83
2019-02-06T14:34:09.857Z,18.20
2019-02-06T14:37:00.640Z,16.70
2019-02-06T14:39:44.644Z,18.90
2019-02-06T14:42:27.985Z,17.17
2019-02-06T14:45:02.342Z,18.10
2019-02-06T14:47:54.726Z,16.27
2019-02-06T14:50:35.042Z,18.47
2019-02-06T14:53:18.240Z,19.10
2019-02-06T14:56:06.202Z,17.27
2019-02-06T14:58:57.129Z,17.63
2019-02-06T15:01:45.018Z,18.40
2019-02-06T15:04:37.310Z,20.27
2019-02-06T15:07:26.455Z,19.12
2019-02-06T15:10:18.722Z,21.23
2019-02-06T15:13:05.492Z,22.17
2019-02-06T15:15:42.999Z,21.17
2019-02-06T15:18:38.753Z,21.30
2019-02-06T15:21:19.188Z,21.73
2019-02-06T15:23:59.477Z,20.70
2019-02-06T15:26:42.585Z,22.22
2019-02-06T15:29:19.953Z,22.15
2019-02-06T15:31:57.511Z,24.25
2019-02-06T15:34:41.090Z,22.85
2019-02-06T15:37:24.483Z,22.73
2019-02-06T15:40:27.686Z,21.90
2019-02-06T15:43:04.913Z,21.50
2019-02-06T15:45:45.357Z,21.70
2019-02-06T15:48:29.368Z,21.00
2019-02-06T15:51:17.186Z,20.60
2019-02-06T15:53:54.394Z,21.70
2019-02-06T15:56:44.549Z,21.05
2019-02-06T15:59:31.038Z,20.90
2019-02-06T16:02:17.272Z,20.85
2019-02-06T16:05:14.677Z,19.12
2019-02-06T16:08:04.623Z,20.43
2019-02-06T16:10:57.442Z,18.20
2019-02-06T16:13:50.022Z,17.65
2019-02-06T16:16:33.372Z,19.73
2019-02-06T16:19:28.856Z,20.05
2019-02-06T16:22:24.654Z,19.32
2019-02-06T16:25:02.292Z,19.80
2019-02-06T16:27:45.865Z,18.85
2019-02-06T16:30:51.917Z,19.30
2019-02-06T16:33:36.312Z,20.82
2019-02-06T16:36:13.541Z,20.62
2019-02-06T16:38:51.217Z,17.23
2019-02-06T16:41:32.527Z,19.25
2019-02-06T16:44:18.682Z,19.95
2019-02-06T16:47:00.511Z,16.55
2019-02-06T16:49:39.091Z,18.32
2019-02-06T16:52:38.875Z,17.37
2019-02-06T16:55:25.231Z,17.80
2019-02-06T16:58:08.812Z,17.48
2019-02-06T17:00:49.254Z,19.48
2019-02-06T17:03:25.045Z,22.42
2019-02-06T17:05:56.734Z,20.95
2019-02-06T17:08:32.618Z,18.85
2019-02-06T17:11:21.289Z,20.88
2019-02-06T17:14:02.191Z,21.90
2019-02-06T17:16:48.917Z,20.12
2019-02-06T17:19:29.195Z,17.05
2019-02-06T17:22:15.809Z,21.70
2019-02-06T17:25:09.523Z,21.27
2019-02-06T17:28:06.453Z,19.95
2019-02-06T17:30:56.262Z,21.45
2019-02-06T17:33:55.961Z,20.30
2019-02-06T17:36:33.659Z,33.92
2019-02-06T17:39:23.831Z,23.85
2019-02-06T17:42:15.080Z,26.23
2019-02-06T17:44:42.932Z,26.07
2019-02-06T17:47:27.645Z,29.98
2019-02-06T17:50:27.800Z,26.20
2019-02-06T17:53:02.273Z,26.37
2019-02-06T17:55:31.029Z,23.07
2019-02-06T17:58:01.007Z,26.40
2019-02-06T18:00:52.009Z,23.60
2019-02-06T18:03:20.654Z,24.90
2019-02-06T18:05:49.843Z,24.80
2019-02-06T18:08:19.999Z,25.32
2019-02-06T18:10:49.374Z,24.77
2019-02-06T18:13:20.522Z,25.20
2019-02-06T18:15:50.678Z,23.40
2019-02-06T18:18:20.510Z,22.77
2019-02-06T18:20:49.086Z,23.87
2019-02-06T18:23:17.692Z,20.37
2019-02-06T18:25:46.723Z,22.40
2019-02-06T18:28:15.541Z,20.60
2019-02-06T18:30:44.237Z,24.12
2019-02-06T18:33:18.764Z,22.17
2019-02-06T18:35:49.375Z,20.05
2019-02-06T18:38:18.180Z,28.65
2019-02-06T18:40:50.908Z,19.20
2019-02-06T18:43:21.474Z,20.68
2019-02-06T18:45:50.158Z,18.07
2019-02-06T18:48:21.163Z,20.25
2019-02-06T18:50:50.034Z,19.37
2019-02-06T19:03:00.902Z,19.27
2019-02-06T19:18:51.389Z,19.75
2019-02-06T19:21:23.123Z,19.00
2019-02-06T19:23:57.590Z,21.77
2019-02-06T19:32:31.277Z,21.35
2019-02-06T19:56:42.984Z,17.80
2019-02-06T19:59:11.729Z,20.85
2019-02-06T20:01:41.575Z,23.00
2019-02-06T20:04:12.944Z,22.35
2019-02-06T20:06:45.010Z,22.70
2019-02-06T20:12:07.735Z,24.32
2019-02-06T20:14:37.958Z,21.27
2019-02-06T20:17:06.818Z,21.90
2019-02-06T20:19:39.693Z,21.62
2019-02-06T20:22:08.551Z,22.17
2019-02-06T20:24:37.113Z,20.20
2019-02-06T20:27:08.388Z,21.87
2019-02-06T20:29:38.089Z,21.40
2019-02-06T20:32:07.218Z,21.93
2019-02-06T20:34:35.870Z,18.65
2019-02-06T20:37:06.186Z,19.10
2019-02-06T20:39:36.043Z,18.12
2019-02-06T20:42:04.919Z,16.30
2019-02-06T20:44:36.417Z,20.30
2019-02-06T20:47:06.377Z,17.73
2019-02-06T20:49:36.863Z,18.77
2019-02-06T20:52:05.557Z,18.25
2019-02-06T20:54:35.852Z,17.85
2019-02-06T20:57:12.066Z,15.85
2019-02-06T20:59:34.898Z,17.75
2019-02-06T21:02:03.600Z,17.23
2019-02-06T21:04:34.205Z,17.00
2019-02-06T21:07:02.910Z,17.37
2019-02-06T21:09:34.351Z,16.95
2019-02-06T21:12:07.975Z,14.83
2019-02-06T21:14:39.367Z,14.65
2019-02-06T21:17:09.095Z,15.55
2019-02-06T21:19:37.875Z,17.25
2019-02-06T21:22:07.068Z,16.17
2019-02-06T21:24:35.899Z,16.97
2019-02-06T21:27:04.658Z,17.30
2019-02-06T21:29:35.276Z,14.73
2019-02-06T21:32:05.968Z,14.73
2019-02-06T21:34:34.711Z,16.90
2019-02-06T21:37:08.206Z,14.03
2019-02-06T21:39:39.374Z,13.68
2019-02-06T21:42:09.368Z,14.15
2019-02-06T21:44:38.368Z,15.05
2019-02-06T21:47:07.494Z,15.72
2019-02-06T21:49:37.821Z,13.68
2019-02-06T21:52:06.597Z,13.38
2019-02-06T21:54:35.970Z,14.03
2019-02-06T21:57:06.567Z,14.55
